Time;durP1;ratioP1;P1;durP2;ratioP2;P2;SDS_P1;SDS_P2;PMS_P1;PMS_P2;Temp;Humidity;BMP_temperature;BMP_pressure;BME280_temperature;BME280_humidity;BME280_pressure;Samples;Min_cycle;Max_cycle;Signal;HPM_P1;HPM_P2
2024/01/22 00:00:41;;;;;;;2.43;2.23;;;;;;;;;;5012296;28;20242;-86
2024/01/22 00:03:22;;;;;;;3.17;1.47;;;;;;;;;;5012447;28;20246;-84
2024/01/22 00:05:49;;;;;;;2.20;2.10;;;;;;;;;;5011994;28;20278;-84
2024/01/22 00:08:17;;;;;;;4.00;2.40;;;;;;;;;;5019300;28;20219;-85
2024/01/22 00:10:51;;;;;;;6.27;1.60;;;;;;;;;;5028184;28;20301;-85
2024/01/22 00:13:21;;;;;;;2.73;2.50;;;;;;;;;;5011955;28;20437;-84
2024/01/22 00:15:52;;;;;;;5.50;2.53;;;;;;;;;;5019702;28;20299;-86
2024/01/22 00:18:20;;;;;;;6.90;2.43;;;;;;;;;;5022081;28;20231;-85
2024/01/22 00:20:47;;;;;;;2.63;2.53;;;;;;;;;;5014895;28;20709;-86
2024/01/22 00:23:15;;;;;;;5.40;3.63;;;;;;;;;;5016385;28;20680;-85
2024/01/22 00:25:48;;;;;;;1.20;1.10;;;;;;;;;;5017769;28;20235;-84
2024/01/22 00:28:19;;;;;;;4.13;2.00;;;;;;;;;;4996400;28;20232;-84
2024/01/22 00:30:49;;;;;;;1.60;1.50;;;;;;;;;;5011104;28;20354;-85
2024/01/22 00:33:18;;;;;;;3.80;2.97;;;;;;;;;;5000145;28;20220;-86
2024/01/22 00:35:48;;;;;;;2.90;2.80;;;;;;;;;;5019730;28;20235;-84
2024/01/22 00:38:15;;;;;;;2.43;2.10;;;;;;;;;;5024083;28;20232;-85
2024/01/22 00:40:43;;;;;;;2.00;1.73;;;;;;;;;;5008000;28;20248;-86
2024/01/22 00:43:13;;;;;;;2.10;1.97;;;;;;;;;;5026045;28;20217;-85
2024/01/22 00:45:41;;;;;;;5.00;2.13;;;;;;;;;;5020257;28;20284;-84
2024/01/22 00:48:11;;;;;;;2.43;1.20;;;;;;;;;;5021384;28;20200;-84
2024/01/22 00:50:40;;;;;;;1.17;1.17;;;;;;;;;;5024885;28;20301;-85
2024/01/22 00:53:14;;;;;;;1.77;1.67;;;;;;;;;;5024257;28;20604;-85
2024/01/22 00:55:41;;;;;;;1.60;1.60;;;;;;;;;;5027538;28;20236;-85
2024/01/22 00:58:10;;;;;;;2.43;0.93;;;;;;;;;;5008816;28;20207;-84
2024/01/22 01:00:37;;;;;;;4.00;2.77;;;;;;;;;;5027405;28;20204;-84
2024/01/22 01:03:04;;;;;;;1.97;1.23;;;;;;;;;;5035967;28;20220;-85
2024/01/22 01:05:31;;;;;;;1.70;1.70;;;;;;;;;;5036660;28;20184;-85
2024/01/22 01:08:01;;;;;;;2.33;1.10;;;;;;;;;;5030622;28;20200;-84
2024/01/22 01:10:31;;;;;;;1.73;1.63;;;;;;;;;;5034107;28;20196;-84
2024/01/22 01:12:58;;;;;;;2.83;2.47;;;;;;;;;;5015835;28;20216;-84
2024/01/22 01:15:25;;;;;;;2.03;2.03;;;;;;;;;;5024312;28;20232;-85
2024/01/22 01:17:52;;;;;;;1.30;1.30;;;;;;;;;;5019429;28;20200;-85
2024/01/22 01:20:20;;;;;;;1.37;1.37;;;;;;;;;;5034074;28;20211;-85
2024/01/22 01:22:48;;;;;;;3.43;2.73;;;;;;;;;;5017966;28;20599;-85
2024/01/22 01:25:19;;;;;;;2.60;2.27;;;;;;;;;;5023515;28;20235;-84
2024/01/22 01:27:46;;;;;;;2.43;2.33;;;;;;;;;;5019361;28;20204;-84
2024/01/22 01:30:14;;;;;;;4.47;4.07;;;;;;;;;;5031492;28;20196;-85
2024/01/22 01:32:41;;;;;;;3.47;3.00;;;;;;;;;;5025455;28;20216;-85
2024/01/22 01:35:11;;;;;;;4.80;2.90;;;;;;;;;;5034506;28;20369;-84
2024/01/22 01:37:38;;;;;;;2.27;1.23;;;;;;;;;;5019725;28;20223;-83
2024/01/22 01:40:07;;;;;;;2.73;2.63;;;;;;;;;;5025512;28;20231;-85
2024/01/22 01:42:37;;;;;;;10.03;3.37;;;;;;;;;;5021043;28;20205;-85
2024/01/22 01:45:04;;;;;;;3.20;2.17;;;;;;;;;;5017603;28;20202;-85
2024/01/22 01:47:33;;;;;;;1.30;1.30;;;;;;;;;;5035468;28;20334;-85
2024/01/22 01:50:01;;;;;;;2.37;2.17;;;;;;;;;;5024273;28;20213;-85
2024/01/22 01:52:32;;;;;;;4.93;3.47;;;;;;;;;;5014808;28;20213;-85
2024/01/22 01:55:00;;;;;;;1.93;1.50;;;;;;;;;;5013785;28;20367;-85
2024/01/22 01:57:31;;;;;;;1.40;1.37;;;;;;;;;;5023835;28;20292;-85
2024/01/22 02:00:00;;;;;;;4.10;1.83;;;;;;;;;;5019950;28;20269;-85
2024/01/22 02:02:28;;;;;;;1.97;1.87;;;;;;;;;;5016750;28;20289;-83
2024/01/22 02:04:56;;;;;;;2.27;2.07;;;;;;;;;;5015097;28;20288;-85
2024/01/22 02:07:25;;;;;;;5.80;3.90;;;;;;;;;;5014742;28;20204;-85
2024/01/22 02:09:53;;;;;;;3.27;2.97;;;;;;;;;;5019567;28;20246;-85
2024/01/22 02:12:21;;;;;;;2.63;2.50;;;;;;;;;;5039567;28;20754;-84
2024/01/22 02:14:49;;;;;;;4.80;3.50;;;;;;;;;;5035629;28;20211;-85
2024/01/22 02:17:18;;;;;;;3.37;3.23;;;;;;;;;;5013692;28;20275;-85
2024/01/22 02:19:46;;;;;;;5.63;3.43;;;;;;;;;;5025367;28;20287;-84
2024/01/22 02:22:16;;;;;;;3.47;2.23;;;;;;;;;;5018801;28;20263;-84
2024/01/22 02:24:45;;;;;;;7.53;2.13;;;;;;;;;;5013565;28;20211;-85
2024/01/22 02:27:13;;;;;;;2.10;2.00;;;;;;;;;;5023639;28;20227;-83
2024/01/22 02:29:42;;;;;;;4.70;3.23;;;;;;;;;;5017748;28;20230;-85
2024/01/22 02:32:10;;;;;;;1.80;1.80;;;;;;;;;;5020113;28;20197;-84
2024/01/22 02:34:38;;;;;;;9.60;3.10;;;;;;;;;;5007667;28;20288;-84
2024/01/22 02:37:06;;;;;;;4.03;3.83;;;;;;;;;;5022559;28;20284;-85
2024/01/22 02:39:35;;;;;;;4.87;4.43;;;;;;;;;;5049671;28;20184;-84
2024/01/22 02:42:04;;;;;;;8.27;2.37;;;;;;;;;;5051564;28;20220;-84
2024/01/22 02:44:32;;;;;;;17.40;6.37;;;;;;;;;;5049594;28;20196;-84
2024/01/22 02:46:59;;;;;;;3.27;3.07;;;;;;;;;;5029204;28;20219;-84
2024/01/22 02:49:27;;;;;;;2.57;2.43;;;;;;;;;;5025976;28;20226;-85
2024/01/22 02:51:54;;;;;;;1.67;1.60;;;;;;;;;;5018678;28;20520;-85
2024/01/22 02:54:22;;;;;;;3.43;3.23;;;;;;;;;;5014166;28;20231;-84
2024/01/22 02:56:50;;;;;;;5.37;3.13;;;;;;;;;;4995104;28;20247;-84
2024/01/22 02:59:22;;;;;;;8.43;2.73;;;;;;;;;;4994500;28;20657;-84
2024/01/22 03:01:49;;;;;;;3.90;3.03;;;;;;;;;;4994854;28;20673;-84
2024/01/22 03:04:17;;;;;;;3.63;3.13;;;;;;;;;;4994374;28;20695;-84
2024/01/22 03:06:45;;;;;;;4.57;1.53;;;;;;;;;;4991540;28;20597;-85
2024/01/22 03:09:13;;;;;;;1.70;1.60;;;;;;;;;;4992164;28;20332;-86
2024/01/22 03:11:41;;;;;;;4.33;2.40;;;;;;;;;;4996372;28;20260;-84
2024/01/22 03:14:09;;;;;;;4.33;3.33;;;;;;;;;;4996083;28;20205;-85
2024/01/22 03:16:38;;;;;;;0.77;0.77;;;;;;;;;;4992993;28;20721;-86
2024/01/22 03:19:06;;;;;;;1.33;1.33;;;;;;;;;;4993050;28;20244;-86
2024/01/22 03:21:33;;;;;;;3.77;3.17;;;;;;;;;;4976496;28;20193;-85
2024/01/22 03:24:00;;;;;;;4.17;3.87;;;;;;;;;;4993354;28;20237;-86
2024/01/22 03:26:28;;;;;;;3.37;3.13;;;;;;;;;;4994342;28;20609;-85
2024/01/22 03:28:57;;;;;;;1.67;1.67;;;;;;;;;;4994208;28;20201;-85
2024/01/22 03:31:24;;;;;;;2.67;1.90;;;;;;;;;;4993389;28;20208;-85
2024/01/22 03:33:54;;;;;;;2.60;2.43;;;;;;;;;;4993711;28;20262;-86
2024/01/22 03:36:22;;;;;;;23.90;2.67;;;;;;;;;;4994166;28;20233;-85
2024/01/22 03:38:50;;;;;;;5.13;1.67;;;;;;;;;;4993840;28;20669;-84
2024/01/22 03:41:17;;;;;;;10.73;5.47;;;;;;;;;;4993783;28;20205;-84
2024/01/22 03:43:44;;;;;;;5.70;3.67;;;;;;;;;;4993714;28;20193;-84
2024/01/22 03:46:12;;;;;;;6.77;6.07;;;;;;;;;;4991387;28;20591;-85
2024/01/22 03:48:39;;;;;;;10.13;6.50;;;;;;;;;;4993894;28;20205;-85
2024/01/22 03:51:12;;;;;;;8.37;3.93;;;;;;;;;;4993506;28;20198;-85
2024/01/22 03:53:41;;;;;;;19.23;4.67;;;;;;;;;;4997222;28;20606;-84
2024/01/22 03:56:09;;;;;;;9.63;5.73;;;;;;;;;;5010967;28;20232;-84
2024/01/22 03:58:36;;;;;;;15.77;4.80;;;;;;;;;;5020967;28;20583;-84
2024/01/22 04:01:06;;;;;;;3.70;2.63;;;;;;;;;;5018925;28;20672;-84
2024/01/22 04:03:33;;;;;;;5.30;2.37;;;;;;;;;;5017302;28;20201;-84
2024/01/22 04:06:01;;;;;;;4.37;3.33;;;;;;;;;;5016946;28;20189;-85
2024/01/22 04:08:30;;;;;;;10.87;2.57;;;;;;;;;;5015829;28;20217;-85
2024/01/22 04:10:57;;;;;;;11.10;4.27;;;;;;;;;;5017268;28;20197;-85
2024/01/22 04:13:24;;;;;;;7.20;1.57;;;;;;;;;;5016236;28;20227;-85
2024/01/22 04:15:54;;;;;;;4.80;2.57;;;;;;;;;;5018110;28;20242;-85
2024/01/22 04:18:22;;;;;;;2.57;2.47;;;;;;;;;;5016643;28;20207;-84
2024/01/22 04:20:50;;;;;;;1.10;1.07;;;;;;;;;;5017094;28;20204;-86
2024/01/22 04:23:17;;;;;;;4.37;2.47;;;;;;;;;;5015823;28;20197;-85
2024/01/22 04:25:47;;;;;;;1.00;0.83;;;;;;;;;;5016062;28;20645;-84
2024/01/22 04:28:16;;;;;;;1.90;1.83;;;;;;;;;;5015850;28;20219;-85
2024/01/22 04:30:44;;;;;;;3.70;3.40;;;;;;;;;;5015306;28;20502;-86
2024/01/22 04:33:12;;;;;;;5.20;2.67;;;;;;;;;;5016132;28;20231;-85
2024/01/22 04:35:39;;;;;;;2.33;2.30;;;;;;;;;;5016373;28;20196;-85
2024/01/22 04:38:07;;;;;;;3.10;1.47;;;;;;;;;;5015673;28;20200;-85
2024/01/22 04:40:34;;;;;;;5.37;2.37;;;;;;;;;;5018283;28;20227;-85
2024/01/22 04:43:06;;;;;;;4.23;2.77;;;;;;;;;;5016086;28;20227;-84
2024/01/22 04:45:33;;;;;;;5.10;2.20;;;;;;;;;;5014197;28;20243;-85
2024/01/22 04:48:04;;;;;;;2.00;1.90;;;;;;;;;;5016611;28;20852;-85
2024/01/22 04:50:31;;;;;;;4.30;1.83;;;;;;;;;;5016054;28;20692;-85
2024/01/22 04:52:58;;;;;;;0.87;0.87;;;;;;;;;;5016737;28;20594;-85
2024/01/22 04:55:26;;;;;;;5.90;2.87;;;;;;;;;;5016844;28;20249;-85
2024/01/22 04:57:54;;;;;;;1.80;1.73;;;;;;;;;;5009882;28;20228;-85
2024/01/22 05:00:24;;;;;;;3.90;1.83;;;;;;;;;;5008876;28;20268;-85
2024/01/22 05:02:56;;;;;;;3.63;3.53;;;;;;;;;;5006323;28;20220;-85
2024/01/22 05:05:26;;;;;;;3.63;3.33;;;;;;;;;;5024120;28;20201;-85
2024/01/22 05:07:53;;;;;;;10.87;3.47;;;;;;;;;;5016264;28;20240;-86
2024/01/22 05:10:24;;;;;;;2.90;2.57;;;;;;;;;;4999911;28;20201;-85
2024/01/22 05:12:52;;;;;;;2.27;2.17;;;;;;;;;;5011759;28;20220;-85
2024/01/22 05:15:24;;;;;;;0.93;0.83;;;;;;;;;;5003732;28;20660;-85
2024/01/22 05:17:52;;;;;;;0.43;0.43;;;;;;;;;;4994744;28;20324;-86
2024/01/22 05:20:19;;;;;;;2.83;2.63;;;;;;;;;;5002262;28;20700;-84
2024/01/22 05:22:48;;;;;;;1.73;1.73;;;;;;;;;;4995781;28;20201;-85
2024/01/22 05:26:43;;;;;;;2.97;1.83;;;;;;;;;;5150359;27;20543;-84
2024/01/22 05:29:10;;;;;;;1.90;1.80;;;;;;;;;;5137498;27;20199;-84
2024/01/22 05:31:38;;;;;;;4.37;2.33;;;;;;;;;;5155270;27;20192;-84
2024/01/22 05:34:09;;;;;;;4.27;2.10;;;;;;;;;;5156726;27;20204;-84
2024/01/22 05:36:40;;;;;;;1.50;1.50;;;;;;;;;;5171265;27;20198;-83
2024/01/22 05:39:07;;;;;;;3.00;1.27;;;;;;;;;;5161015;27;20210;-84
2024/01/22 05:41:34;;;;;;;2.60;2.13;;;;;;;;;;5152772;27;20222;-85
2024/01/22 05:44:04;;;;;;;1.83;1.77;;;;;;;;;;5152953;27;20204;-84
2024/01/22 05:46:31;;;;;;;4.00;2.77;;;;;;;;;;5151679;27;20212;-85
2024/01/22 05:48:59;;;;;;;1.17;1.17;;;;;;;;;;5152178;27;20211;-84
2024/01/22 05:51:26;;;;;;;2.00;1.90;;;;;;;;;;5148869;27;20283;-84
2024/01/22 05:53:53;;;;;;;3.63;2.00;;;;;;;;;;5135756;27;20645;-84
2024/01/22 05:56:25;;;;;;;0.80;0.80;;;;;;;;;;5148222;27;20222;-84
2024/01/22 05:58:53;;;;;;;4.10;3.17;;;;;;;;;;5143520;27;20200;-84
2024/01/22 06:01:25;;;;;;;1.67;1.57;;;;;;;;;;5151219;27;20204;-85
2024/01/22 06:03:51;;;;;;;2.10;1.70;;;;;;;;;;5151472;27;20214;-86
2024/01/22 06:06:20;;;;;;;2.47;2.27;;;;;;;;;;5149694;27;20231;-85
2024/01/22 06:08:53;;;;;;;5.77;2.43;;;;;;;;;;5153001;27;20249;-85
2024/01/22 06:11:21;;;;;;;1.83;1.83;;;;;;;;;;5151548;27;20196;-84
2024/01/22 06:13:48;;;;;;;2.47;2.27;;;;;;;;;;5160155;27;20188;-84
2024/01/22 06:16:16;;;;;;;2.13;1.97;;;;;;;;;;5158948;27;20198;-84
2024/01/22 06:18:48;;;;;;;1.83;1.83;;;;;;;;;;5162204;27;20224;-85
2024/01/22 06:21:16;;;;;;;6.20;3.03;;;;;;;;;;5157371;27;20638;-84
2024/01/22 06:23:46;;;;;;;1.37;1.37;;;;;;;;;;5134973;28;20205;-83
2024/01/22 06:26:14;;;;;;;2.43;2.33;;;;;;;;;;5146601;27;20232;-85
2024/01/22 06:28:42;;;;;;;0.83;0.83;;;;;;;;;;5148946;27;20196;-86
2024/01/22 06:31:09;;;;;;;3.13;2.93;;;;;;;;;;5136475;27;20199;-85
2024/01/22 06:33:39;;;;;;;1.90;1.73;;;;;;;;;;5140288;27;20258;-84
2024/01/22 06:36:09;;;;;;;5.30;2.47;;;;;;;;;;5139855;27;20201;-84
2024/01/22 06:38:38;;;;;;;3.20;2.73;;;;;;;;;;5133456;27;20228;-84
2024/01/22 06:41:11;;;;;;;2.53;2.37;;;;;;;;;;5121788;27;20223;-85
2024/01/22 06:43:38;;;;;;;4.80;4.13;;;;;;;;;;5125356;27;20700;-83
2024/01/22 06:46:06;;;;;;;4.07;3.50;;;;;;;;;;5128969;27;20224;-84
2024/01/22 06:48:33;;;;;;;2.47;2.27;;;;;;;;;;5134517;27;20181;-84
2024/01/22 06:51:01;;;;;;;1.07;1.03;;;;;;;;;;5135107;27;20560;-84
2024/01/22 06:53:30;;;;;;;4.03;3.07;;;;;;;;;;5136022;27;20207;-84
2024/01/22 06:55:59;;;;;;;2.10;2.00;;;;;;;;;;5134431;27;20197;-85
2024/01/22 06:58:26;;;;;;;1.47;1.37;;;;;;;;;;5134980;27;20189;-85
2024/01/22 07:00:54;;;;;;;3.97;3.53;;;;;;;;;;5132373;27;20185;-85
2024/01/22 07:03:22;;;;;;;4.03;3.63;;;;;;;;;;5123570;27;20196;-84
2024/01/22 07:05:50;;;;;;;5.93;3.23;;;;;;;;;;5122812;27;20286;-84
2024/01/22 07:08:17;;;;;;;3.83;1.93;;;;;;;;;;5131883;27;20272;-84
2024/01/22 07:10:50;;;;;;;0.63;0.63;;;;;;;;;;5118326;27;20211;-84
2024/01/22 07:13:18;;;;;;;3.03;2.83;;;;;;;;;;5135122;27;20620;-85
2024/01/22 07:15:46;;;;;;;3.43;1.90;;;;;;;;;;5124710;27;20213;-84
2024/01/22 07:18:16;;;;;;;3.17;1.27;;;;;;;;;;5130580;27;20188;-84
2024/01/22 07:20:47;;;;;;;3.43;2.07;;;;;;;;;;5132131;27;20205;-84
2024/01/22 07:23:15;;;;;;;6.23;4.07;;;;;;;;;;5122266;27;20267;-86
2024/01/22 07:25:41;;;;;;;2.37;1.67;;;;;;;;;;5123750;27;20346;-86
2024/01/22 07:28:11;;;;;;;3.33;1.67;;;;;;;;;;5115317;27;20346;-85
2024/01/22 07:30:38;;;;;;;4.37;2.63;;;;;;;;;;5137971;27;20270;-84
2024/01/22 07:33:08;;;;;;;3.73;2.07;;;;;;;;;;5134127;27;20188;-84
2024/01/22 07:35:39;;;;;;;3.80;3.07;;;;;;;;;;5134698;27;20192;-85
2024/01/22 07:38:07;;;;;;;3.87;3.50;;;;;;;;;;5134508;27;20208;-84
2024/01/22 07:40:34;;;;;;;4.93;2.83;;;;;;;;;;5135952;27;20200;-85
2024/01/22 07:43:02;;;;;;;5.00;2.20;;;;;;;;;;5130325;27;20177;-83
2024/01/22 07:45:31;;;;;;;3.60;3.30;;;;;;;;;;5114757;27;20411;-85
2024/01/22 07:47:59;;;;;;;1.63;1.53;;;;;;;;;;5116873;27;20531;-84
2024/01/22 07:50:30;;;;;;;4.87;3.10;;;;;;;;;;5130144;27;20193;-84
2024/01/22 07:53:10;;;;;;;7.37;4.17;;;;;;;;;;5128273;27;20225;-85
2024/01/22 07:55:38;;;;;;;3.77;3.00;;;;;;;;;;5124241;27;20201;-85
2024/01/22 07:58:28;;;;;;;9.07;4.67;;;;;;;;;;5118766;27;20279;-84
2024/01/22 08:01:02;;;;;;;6.20;4.03;;;;;;;;;;5118238;27;20192;-83
2024/01/22 08:03:29;;;;;;;3.77;3.67;;;;;;;;;;5126891;27;20201;-85
2024/01/22 08:06:00;;;;;;;2.13;2.03;;;;;;;;;;5126223;27;20308;-84
2024/01/22 08:08:28;;;;;;;6.77;1.80;;;;;;;;;;5133704;27;20228;-85
2024/01/22 08:11:01;;;;;;;8.37;3.63;;;;;;;;;;5130536;27;20188;-84
2024/01/22 08:13:37;;;;;;;13.07;3.70;;;;;;;;;;5114777;27;20209;-85
2024/01/22 08:16:12;;;;;;;3.20;3.03;;;;;;;;;;5131063;27;20208;-84
2024/01/22 08:18:42;;;;;;;1.97;1.87;;;;;;;;;;5121303;27;20196;-83
2024/01/22 08:21:16;;;;;;;7.90;2.23;;;;;;;;;;5129506;27;20197;-83
2024/01/22 08:23:47;;;;;;;2.03;2.03;;;;;;;;;;5116312;28;20722;-84
2024/01/22 08:26:16;;;;;;;2.73;2.63;;;;;;;;;;5131427;27;20270;-82
2024/01/22 08:28:44;;;;;;;3.83;2.77;;;;;;;;;;5119462;27;20235;-82
2024/01/22 08:31:14;;;;;;;3.33;3.13;;;;;;;;;;5130924;27;20692;-84
2024/01/22 08:33:41;;;;;;;8.47;5.33;;;;;;;;;;5134076;27;20228;-83
2024/01/22 08:36:11;;;;;;;2.77;2.63;;;;;;;;;;5133749;27;20220;-84
2024/01/22 08:38:41;;;;;;;8.33;4.20;;;;;;;;;;5132697;27;20338;-85
2024/01/22 08:41:11;;;;;;;3.40;2.90;;;;;;;;;;5132025;27;20261;-84
2024/01/22 08:43:39;;;;;;;1.37;1.27;;;;;;;;;;5132396;27;20224;-84
2024/01/22 08:46:09;;;;;;;3.27;2.53;;;;;;;;;;5132935;27;20296;-86
2024/01/22 08:48:39;;;;;;;2.63;2.10;;;;;;;;;;5115455;27;20225;-85
2024/01/22 08:51:06;;;;;;;17.07;4.80;;;;;;;;;;5131886;27;20224;-83
2024/01/22 08:53:34;;;;;;;8.40;4.00;;;;;;;;;;5132141;27;20271;-85
2024/01/22 08:56:04;;;;;;;7.63;4.17;;;;;;;;;;5117561;27;20757;-85
2024/01/22 08:58:31;;;;;;;3.63;3.30;;;;;;;;;;5128224;27;20315;-85
2024/01/22 09:00:58;;;;;;;3.90;3.47;;;;;;;;;;5121121;27;20231;-84
2024/01/22 09:03:26;;;;;;;3.10;2.80;;;;;;;;;;5135483;27;20221;-84
2024/01/22 09:05:55;;;;;;;5.10;2.43;;;;;;;;;;5142935;27;20227;-85
2024/01/22 09:08:23;;;;;;;3.17;2.83;;;;;;;;;;5147383;27;20224;-85
2024/01/22 09:10:50;;;;;;;7.17;2.63;;;;;;;;;;5137954;27;20220;-85
2024/01/22 09:13:17;;;;;;;8.87;2.37;;;;;;;;;;5140989;27;20544;-85
2024/01/22 09:15:44;;;;;;;5.00;3.60;;;;;;;;;;5132783;27;20315;-84
2024/01/22 09:18:14;;;;;;;4.00;2.13;;;;;;;;;;5132350;27;20258;-85
2024/01/22 09:20:41;;;;;;;6.87;2.10;;;;;;;;;;5114130;27;20240;-84
2024/01/22 09:23:10;;;;;;;3.93;3.23;;;;;;;;;;5125952;27;20781;-85
2024/01/22 09:25:41;;;;;;;3.00;2.73;;;;;;;;;;5121123;27;20242;-86
2024/01/22 09:28:08;;;;;;;8.00;5.60;;;;;;;;;;5119263;28;20229;-83
2024/01/22 09:30:36;;;;;;;10.30;3.33;;;;;;;;;;5131461;27;20676;-85
2024/01/22 09:33:05;;;;;;;3.37;3.17;;;;;;;;;;5137660;27;20216;-85
2024/01/22 09:35:33;;;;;;;2.40;2.30;;;;;;;;;;5153716;27;20213;-84
2024/01/22 09:38:01;;;;;;;6.27;4.23;;;;;;;;;;5145534;27;20316;-87
2024/01/22 09:40:33;;;;;;;3.17;2.83;;;;;;;;;;5132359;27;20227;-84
2024/01/22 09:43:04;;;;;;;4.93;3.13;;;;;;;;;;5133633;27;20219;-84
2024/01/22 09:45:32;;;;;;;5.77;3.77;;;;;;;;;;5133143;27;20288;-84
2024/01/22 09:48:00;;;;;;;4.13;3.10;;;;;;;;;;5134314;27;20711;-84
2024/01/22 09:50:28;;;;;;;7.27;3.20;;;;;;;;;;5132221;27;20213;-84
2024/01/22 09:52:57;;;;;;;8.77;4.67;;;;;;;;;;5131281;28;20295;-86
2024/01/22 09:55:24;;;;;;;4.40;4.10;;;;;;;;;;5130924;27;20224;-85
2024/01/22 09:57:55;;;;;;;7.87;4.40;;;;;;;;;;5133399;27;20239;-84
2024/01/22 10:00:26;;;;;;;4.13;3.83;;;;;;;;;;5139807;27;20228;-85
2024/01/22 10:02:53;;;;;;;5.63;4.23;;;;;;;;;;5151171;27;20220;-86
2024/01/22 10:05:21;;;;;;;14.10;5.73;;;;;;;;;;5150878;27;20325;-84
2024/01/22 10:07:49;;;;;;;5.00;4.53;;;;;;;;;;5134714;28;20290;-86
2024/01/22 10:10:16;;;;;;;8.07;5.60;;;;;;;;;;5132715;27;20258;-85
2024/01/22 10:13:03;;;;;;;3.90;2.70;;;;;;;;;;5135951;27;20419;-85
2024/01/22 10:15:31;;;;;;;7.20;6.57;;;;;;;;;;5144438;27;20225;-84
2024/01/22 10:18:10;;;;;;;7.60;5.17;;;;;;;;;;5147313;27;20220;-85
2024/01/22 10:20:37;;;;;;;10.93;4.63;;;;;;;;;;5125417;27;20256;-84
2024/01/22 10:23:06;;;;;;;8.17;4.43;;;;;;;;;;5123226;27;20300;-85
2024/01/22 10:25:33;;;;;;;13.50;7.80;;;;;;;;;;5121179;27;20284;-86
2024/01/22 10:28:16;;;;;;;6.00;5.13;;;;;;;;;;5125889;27;20711;-85
2024/01/22 10:30:44;;;;;;;9.03;5.20;;;;;;;;;;5134521;27;20700;-85
2024/01/22 10:33:12;;;;;;;11.13;7.30;;;;;;;;;;5141609;27;20562;-84
2024/01/22 10:35:40;;;;;;;12.23;5.60;;;;;;;;;;5144259;27;20281;-85
2024/01/22 10:38:10;;;;;;;10.33;6.43;;;;;;;;;;5149348;27;20284;-85
2024/01/22 10:40:38;;;;;;;14.27;5.53;;;;;;;;;;5158047;27;20228;-85
2024/01/22 10:43:26;;;;;;;17.27;8.47;;;;;;;;;;5148209;27;20224;-84
2024/01/22 10:45:55;;;;;;;7.30;6.60;;;;;;;;;;5131819;27;20224;-85
2024/01/22 10:48:23;;;;;;;15.80;6.90;;;;;;;;;;5135906;27;20251;-85
2024/01/22 10:50:51;;;;;;;30.50;10.67;;;;;;;;;;5136433;27;20223;-85
2024/01/22 10:53:20;;;;;;;12.33;7.77;;;;;;;;;;5134822;27;20228;-85
2024/01/22 10:55:58;;;;;;;10.03;6.47;;;;;;;;;;5135122;27;20271;-84
2024/01/22 10:58:27;;;;;;;37.80;9.70;;;;;;;;;;5135011;27;20239;-85
2024/01/22 11:00:59;;;;;;;24.23;12.33;;;;;;;;;;5135792;27;20213;-86
2024/01/22 11:03:28;;;;;;;17.80;9.17;;;;;;;;;;5135876;27;20212;-85
2024/01/22 11:05:58;;;;;;;14.27;8.20;;;;;;;;;;5136439;27;20239;-85
2024/01/22 11:08:28;;;;;;;17.87;7.93;;;;;;;;;;5135530;27;20644;-85
2024/01/22 11:10:56;;;;;;;11.30;7.83;;;;;;;;;;5135212;27;20222;-85
2024/01/22 11:13:24;;;;;;;11.63;7.60;;;;;;;;;;5135353;27;20712;-85
2024/01/22 11:15:52;;;;;;;24.97;10.30;;;;;;;;;;5125197;27;20260;-85
2024/01/22 11:18:21;;;;;;;12.43;8.20;;;;;;;;;;5114585;28;20788;-84
2024/01/22 11:20:52;;;;;;;18.37;8.60;;;;;;;;;;5115240;28;20224;-85
2024/01/22 11:23:20;;;;;;;21.30;9.70;;;;;;;;;;5113998;28;20221;-85
2024/01/22 11:25:48;;;;;;;12.93;6.77;;;;;;;;;;5114936;28;20287;-84
2024/01/22 11:28:18;;;;;;;21.63;9.07;;;;;;;;;;5115410;28;20235;-84
2024/01/22 11:30:47;;;;;;;17.30;8.33;;;;;;;;;;5114167;28;20237;-85
2024/01/22 11:33:34;;;;;;;21.73;8.03;;;;;;;;;;5113164;27;20217;-85
2024/01/22 11:36:02;;;;;;;18.40;8.30;;;;;;;;;;5115549;28;20229;-85
2024/01/22 11:38:46;;;;;;;28.10;6.63;;;;;;;;;;5120858;28;20373;-84
2024/01/22 11:41:21;;;;;;;33.10;9.60;;;;;;;;;;5135128;28;20231;-84
2024/01/22 11:43:49;;;;;;;20.60;8.00;;;;;;;;;;5127017;28;20859;-84
2024/01/22 11:46:19;;;;;;;19.07;8.53;;;;;;;;;;5119043;28;20316;-84
2024/01/22 11:48:52;;;;;;;23.80;9.37;;;;;;;;;;5113661;28;20225;-84
2024/01/22 11:51:26;;;;;;;10.87;6.97;;;;;;;;;;5112669;28;20224;-84
2024/01/22 11:53:55;;;;;;;20.67;8.27;;;;;;;;;;5120646;28;20232;-85
2024/01/22 11:56:24;;;;;;;13.03;6.00;;;;;;;;;;5127037;28;20236;-85
2024/01/22 11:58:53;;;;;;;19.63;7.87;;;;;;;;;;5123545;28;20625;-85
2024/01/22 12:01:21;;;;;;;13.67;7.97;;;;;;;;;;5113754;28;20685;-84
2024/01/22 12:03:48;;;;;;;12.80;7.57;;;;;;;;;;5115085;28;20307;-85
2024/01/22 12:06:18;;;;;;;14.33;9.10;;;;;;;;;;5113795;28;20713;-85
2024/01/22 12:08:56;;;;;;;18.73;7.97;;;;;;;;;;5113038;28;20278;-84
2024/01/22 12:11:24;;;;;;;15.63;7.80;;;;;;;;;;5114296;28;20228;-84
2024/01/22 12:13:52;;;;;;;19.90;8.53;;;;;;;;;;5114031;28;20267;-85
2024/01/22 12:16:20;;;;;;;27.13;10.43;;;;;;;;;;5127758;27;20219;-86
2024/01/22 12:18:47;;;;;;;17.80;6.80;;;;;;;;;;5134260;27;20235;-85
2024/01/22 12:21:16;;;;;;;13.33;7.07;;;;;;;;;;5133856;27;20242;-84
2024/01/22 12:23:46;;;;;;;17.07;8.13;;;;;;;;;;5134512;27;20218;-85
2024/01/22 12:26:14;;;;;;;15.47;7.60;;;;;;;;;;5132561;27;20720;-85
2024/01/22 12:28:43;;;;;;;14.30;5.57;;;;;;;;;;5133359;27;20676;-84
2024/01/22 12:31:11;;;;;;;8.83;5.23;;;;;;;;;;5133856;27;20223;-83
2024/01/22 12:33:38;;;;;;;7.83;6.80;;;;;;;;;;5134526;27;20224;-85
2024/01/22 12:36:07;;;;;;;23.37;8.47;;;;;;;;;;5132969;27;20766;-84
2024/01/22 12:38:35;;;;;;;12.40;4.83;;;;;;;;;;5133344;27;20224;-85
2024/01/22 12:41:08;;;;;;;18.13;6.70;;;;;;;;;;5134368;27;20364;-84
2024/01/22 12:43:38;;;;;;;20.33;7.13;;;;;;;;;;5133803;27;20212;-83
2024/01/22 12:46:05;;;;;;;13.90;7.27;;;;;;;;;;5135702;27;20224;-82
2024/01/22 12:48:32;;;;;;;8.87;5.57;;;;;;;;;;5132143;27;20232;-82
2024/01/22 12:51:01;;;;;;;25.80;8.37;;;;;;;;;;5145017;27;20606;-83
2024/01/22 12:53:29;;;;;;;10.00;7.60;;;;;;;;;;5144142;27;20254;-83
2024/01/22 12:56:11;;;;;;;8.73;5.23;;;;;;;;;;5134321;27;20299;-82
2024/01/22 12:58:40;;;;;;;9.93;7.17;;;;;;;;;;5143594;27;20228;-82
2024/01/22 13:01:13;;;;;;;15.30;6.23;;;;;;;;;;5129786;28;20247;-83
2024/01/22 13:03:41;;;;;;;21.17;7.87;;;;;;;;;;5129942;27;20217;-84
2024/01/22 13:06:13;;;;;;;15.20;6.17;;;;;;;;;;5133818;28;20246;-85
2024/01/22 13:08:40;;;;;;;12.13;6.83;;;;;;;;;;5135521;27;20241;-85
2024/01/22 13:11:11;;;;;;;18.30;8.73;;;;;;;;;;5144870;27;20307;-84
2024/01/22 13:13:41;;;;;;;28.90;12.07;;;;;;;;;;5145978;27;20228;-85
2024/01/22 13:16:11;;;;;;;17.73;7.90;;;;;;;;;;5133302;27;20264;-84
2024/01/22 13:18:38;;;;;;;21.73;9.80;;;;;;;;;;5124255;28;20231;-84
2024/01/22 13:21:06;;;;;;;18.27;9.83;;;;;;;;;;5145967;27;20220;-85
2024/01/22 13:23:33;;;;;;;21.37;8.63;;;;;;;;;;5147410;27;20248;-85
2024/01/22 13:26:01;;;;;;;7.93;6.53;;;;;;;;;;5149447;27;20240;-84
2024/01/22 13:28:32;;;;;;;15.67;6.57;;;;;;;;;;5150053;27;20248;-85
2024/01/22 13:31:03;;;;;;;28.60;8.27;;;;;;;;;;5149131;27;20244;-85
2024/01/22 13:33:32;;;;;;;18.40;9.90;;;;;;;;;;5145948;27;20227;-83
2024/01/22 13:36:03;;;;;;;14.13;6.43;;;;;;;;;;5147514;27;20220;-85
2024/01/22 13:38:32;;;;;;;15.43;5.70;;;;;;;;;;5144983;28;20217;-84
2024/01/22 13:41:01;;;;;;;14.80;7.07;;;;;;;;;;5145881;27;20335;-85
2024/01/22 13:43:31;;;;;;;16.23;7.07;;;;;;;;;;5146283;28;20236;-85
2024/01/22 13:46:03;;;;;;;11.23;7.17;;;;;;;;;;5136296;27;20243;-84
2024/01/22 13:48:31;;;;;;;8.20;5.97;;;;;;;;;;5129859;28;20324;-85
2024/01/22 13:50:59;;;;;;;12.80;7.10;;;;;;;;;;5126406;28;20221;-84
2024/01/22 13:53:29;;;;;;;13.07;7.07;;;;;;;;;;5129868;28;20220;-84
2024/01/22 13:55:58;;;;;;;16.23;8.77;;;;;;;;;;5130634;28;20243;-85
2024/01/22 13:58:26;;;;;;;8.33;6.83;;;;;;;;;;5130533;28;20277;-84
2024/01/22 14:00:56;;;;;;;7.70;5.43;;;;;;;;;;5129197;28;20257;-84
2024/01/22 14:03:24;;;;;;;10.57;7.03;;;;;;;;;;5126863;28;20584;-84
2024/01/22 14:05:51;;;;;;;15.83;6.60;;;;;;;;;;5127597;28;20217;-83
2024/01/22 14:08:18;;;;;;;17.13;7.47;;;;;;;;;;5122744;28;20592;-84
2024/01/22 14:10:45;;;;;;;10.63;5.17;;;;;;;;;;5125643;28;20232;-83
2024/01/22 14:13:14;;;;;;;13.43;7.83;;;;;;;;;;5128636;28;20213;-85
2024/01/22 14:15:43;;;;;;;21.73;6.83;;;;;;;;;;5136543;27;20240;-84
2024/01/22 14:18:13;;;;;;;9.07;6.77;;;;;;;;;;5146491;27;20307;-84
2024/01/22 14:20:40;;;;;;;10.00;5.63;;;;;;;;;;5149729;27;20205;-85
2024/01/22 14:23:10;;;;;;;13.90;5.50;;;;;;;;;;5147772;27;20273;-84
2024/01/22 14:25:38;;;;;;;6.53;4.90;;;;;;;;;;5147689;27;20240;-85
2024/01/22 14:28:05;;;;;;;9.27;7.10;;;;;;;;;;5146198;27;20232;-86
2024/01/22 14:30:40;;;;;;;10.97;7.93;;;;;;;;;;5142925;27;20216;-84
2024/01/22 14:33:08;;;;;;;14.77;7.23;;;;;;;;;;5150722;27;20246;-85
2024/01/22 14:35:38;;;;;;;11.63;8.53;;;;;;;;;;5148691;27;20306;-84
2024/01/22 14:38:06;;;;;;;9.83;7.20;;;;;;;;;;5150236;27;20234;-85
2024/01/22 14:40:34;;;;;;;11.53;7.53;;;;;;;;;;5153614;27;20227;-85
2024/01/22 14:43:04;;;;;;;6.60;6.00;;;;;;;;;;5150749;27;20314;-84
2024/01/22 14:45:34;;;;;;;9.93;7.30;;;;;;;;;;5150323;27;20217;-84
2024/01/22 14:48:04;;;;;;;25.97;7.37;;;;;;;;;;5149982;27;20356;-85
2024/01/22 14:50:31;;;;;;;9.90;5.97;;;;;;;;;;5149185;27;20271;-85